Time;durP1;ratioP1;P1;durP2;ratioP2;P2;SDS_P1;SDS_P2;PMS_P1;PMS_P2;Temp;Humidity;BMP_temperature;BMP_pressure;BME280_temperature;BME280_humidity;BME280_pressure;Samples;Min_cycle;Max_cycle;Signal;HPM_P1;HPM_P2
2023/09/08 00:00:43;;;;;;;4.88;3.13;;;;;;;;;;5026836;28;20416;-81
2023/09/08 00:03:09;;;;;;;3.95;2.58;;;;;;;;;;5028901;28;20077;-81
2023/09/08 00:05:35;;;;;;;3.35;2.15;;;;;;;;;;5028898;28;20033;-82
2023/09/08 00:08:01;;;;;;;4.10;2.75;;;;;;;;;;5029478;28;20037;-81
2023/09/08 00:10:27;;;;;;;3.75;2.78;;;;;;;;;;5027301;28;20037;-81
2023/09/08 00:12:53;;;;;;;4.20;2.70;;;;;;;;;;5031347;28;20033;-81
2023/09/08 00:15:19;;;;;;;3.90;2.63;;;;;;;;;;5032358;28;20026;-82
2023/09/08 00:17:47;;;;;;;6.32;2.72;;;;;;;;;;5030411;28;20025;-82
2023/09/08 00:20:13;;;;;;;3.78;2.58;;;;;;;;;;5029597;28;20025;-81
2023/09/08 00:22:39;;;;;;;5.82;3.30;;;;;;;;;;5032051;28;20025;-81
2023/09/08 00:25:06;;;;;;;4.75;2.88;;;;;;;;;;5032460;28;20037;-81
2023/09/08 00:27:32;;;;;;;9.10;3.53;;;;;;;;;;5030862;28;20476;-82
2023/09/08 00:30:01;;;;;;;3.20;2.20;;;;;;;;;;5031225;28;20083;-81
2023/09/08 00:32:27;;;;;;;4.85;3.13;;;;;;;;;;5032780;28;20030;-81
2023/09/08 00:34:53;;;;;;;3.17;2.25;;;;;;;;;;5031971;28;20042;-81
2023/09/08 00:37:19;;;;;;;5.72;2.88;;;;;;;;;;5027879;28;20025;-81
2023/09/08 00:39:45;;;;;;;3.47;2.50;;;;;;;;;;5025428;28;20036;-81
2023/09/08 00:42:11;;;;;;;5.20;3.08;;;;;;;;;;5031008;28;20116;-81
2023/09/08 00:44:37;;;;;;;2.90;2.38;;;;;;;;;;5031672;28;20026;-81
2023/09/08 00:47:03;;;;;;;3.90;2.70;;;;;;;;;;5030479;28;20088;-81
2023/09/08 00:49:29;;;;;;;4.25;2.58;;;;;;;;;;5030751;28;20429;-81
2023/09/08 00:51:55;;;;;;;4.13;2.70;;;;;;;;;;5040068;28;20472;-81
2023/09/08 00:54:21;;;;;;;7.88;3.08;;;;;;;;;;5030904;28;20043;-81
2023/09/08 00:56:49;;;;;;;5.05;2.95;;;;;;;;;;5032059;28;20365;-81
2023/09/08 00:59:15;;;;;;;3.40;2.60;;;;;;;;;;5030085;28;20170;-81
2023/09/08 01:01:41;;;;;;;3.05;2.45;;;;;;;;;;5025369;28;20628;-81
2023/09/08 01:04:07;;;;;;;3.65;2.58;;;;;;;;;;5034602;28;20040;-81
2023/09/08 01:06:33;;;;;;;3.97;2.58;;;;;;;;;;5031759;28;20124;-81
2023/09/08 01:08:59;;;;;;;3.78;2.33;;;;;;;;;;5037128;28;20028;-81
2023/09/08 01:11:26;;;;;;;5.03;3.10;;;;;;;;;;5036150;28;20041;-81
2023/09/08 01:13:52;;;;;;;5.82;2.75;;;;;;;;;;5037725;28;20084;-81
2023/09/08 01:16:18;;;;;;;3.65;2.40;;;;;;;;;;5030020;28;20408;-81
2023/09/08 01:18:45;;;;;;;4.13;2.83;;;;;;;;;;5023738;28;20014;-81
2023/09/08 01:21:34;;;;;;;3.47;2.28;;;;;;;;;;5025822;28;20022;-81
2023/09/08 01:24:03;;;;;;;5.30;2.65;;;;;;;;;;4981168;28;20128;-81
2023/09/08 01:26:31;;;;;;;5.15;2.65;;;;;;;;;;5028640;28;20044;-82
2023/09/08 01:28:57;;;;;;;4.25;2.42;;;;;;;;;;5025127;28;20074;-81
2023/09/08 01:31:23;;;;;;;2.92;2.40;;;;;;;;;;5031060;28;20025;-81
2023/09/08 01:33:49;;;;;;;3.88;2.58;;;;;;;;;;5031912;28;20384;-81
2023/09/08 01:36:15;;;;;;;4.55;2.47;;;;;;;;;;5028701;28;20032;-81
2023/09/08 01:38:41;;;;;;;3.40;2.40;;;;;;;;;;5035956;28;20089;-81
2023/09/08 01:41:07;;;;;;;4.68;2.25;;;;;;;;;;5028961;28;20484;-81
2023/09/08 01:43:33;;;;;;;3.58;2.70;;;;;;;;;;5025096;28;20033;-81
2023/09/08 01:45:59;;;;;;;4.90;2.55;;;;;;;;;;5025331;28;20025;-81
2023/09/08 01:48:25;;;;;;;4.28;2.67;;;;;;;;;;5029645;28;20092;-81
2023/09/08 01:50:51;;;;;;;4.05;2.92;;;;;;;;;;5036102;28;20040;-81
2023/09/08 01:53:17;;;;;;;3.45;2.40;;;;;;;;;;5011137;28;21723;-81
2023/09/08 01:55:43;;;;;;;4.28;2.55;;;;;;;;;;5014471;28;20032;-81
2023/09/08 01:58:09;;;;;;;3.72;2.58;;;;;;;;;;5029508;28;20029;-81
2023/09/08 02:00:35;;;;;;;4.38;3.08;;;;;;;;;;5056755;28;20055;-81
2023/09/08 02:03:01;;;;;;;3.65;2.53;;;;;;;;;;5048208;28;20024;-81
2023/09/08 02:05:27;;;;;;;5.38;3.58;;;;;;;;;;5031157;28;20029;-80
2023/09/08 02:07:55;;;;;;;3.80;2.50;;;;;;;;;;5049481;28;20051;-81
2023/09/08 02:10:21;;;;;;;3.42;2.33;;;;;;;;;;5039763;28;20029;-81
2023/09/08 02:12:47;;;;;;;4.10;2.72;;;;;;;;;;5049333;28;20059;-81
2023/09/08 02:15:14;;;;;;;4.47;2.58;;;;;;;;;;5037265;28;20037;-81
2023/09/08 02:17:39;;;;;;;3.15;2.28;;;;;;;;;;5048902;28;20025;-81
2023/09/08 02:20:06;;;;;;;3.95;2.63;;;;;;;;;;5048709;28;20029;-81
2023/09/08 02:22:32;;;;;;;6.43;2.42;;;;;;;;;;5049267;28;20360;-81
2023/09/08 02:24:58;;;;;;;4.65;2.58;;;;;;;;;;5040800;28;20032;-81
2023/09/08 02:27:24;;;;;;;3.15;2.35;;;;;;;;;;5035764;28;20033;-80
2023/09/08 02:29:49;;;;;;;3.90;2.60;;;;;;;;;;5048352;28;20466;-81
2023/09/08 02:32:15;;;;;;;3.80;2.60;;;;;;;;;;5048278;28;20037;-81
2023/09/08 02:34:42;;;;;;;3.83;2.47;;;;;;;;;;5034745;28;20021;-81
2023/09/08 02:37:08;;;;;;;4.10;3.13;;;;;;;;;;5048994;28;20032;-79
2023/09/08 02:39:34;;;;;;;5.13;3.00;;;;;;;;;;5048175;28;20375;-79
2023/09/08 02:42:00;;;;;;;5.68;2.75;;;;;;;;;;5040490;28;20081;-79
2023/09/08 02:44:27;;;;;;;3.85;2.60;;;;;;;;;;5037528;28;20048;-79
2023/09/08 02:46:53;;;;;;;3.15;2.30;;;;;;;;;;5032014;28;20033;-79
2023/09/08 02:49:19;;;;;;;15.60;2.97;;;;;;;;;;5049726;28;20494;-80
2023/09/08 02:51:45;;;;;;;3.17;2.30;;;;;;;;;;5049715;28;20407;-80
2023/09/08 02:54:11;;;;;;;3.33;2.28;;;;;;;;;;5039154;28;20119;-80
2023/09/08 02:56:37;;;;;;;5.03;2.42;;;;;;;;;;5027060;28;20108;-80
2023/09/08 02:59:03;;;;;;;3.55;2.50;;;;;;;;;;5038304;28;20090;-79
2023/09/08 03:01:29;;;;;;;3.13;2.45;;;;;;;;;;5034107;28;20033;-81
2023/09/08 03:03:55;;;;;;;4.75;2.60;;;;;;;;;;5024171;28;20032;-80
2023/09/08 03:06:21;;;;;;;3.80;2.55;;;;;;;;;;5028653;28;20025;-81
2023/09/08 03:08:47;;;;;;;4.03;2.92;;;;;;;;;;5024322;28;20029;-81
2023/09/08 03:11:13;;;;;;;3.10;2.40;;;;;;;;;;5038381;28;20029;-81
2023/09/08 03:13:39;;;;;;;2.65;2.40;;;;;;;;;;5035733;28;20029;-80
2023/09/08 03:16:06;;;;;;;3.58;2.25;;;;;;;;;;5019348;28;20037;-81
2023/09/08 03:18:33;;;;;;;2.10;1.92;;;;;;;;;;5014710;28;20402;-81
2023/09/08 03:21:00;;;;;;;4.75;2.40;;;;;;;;;;5022486;28;20468;-80
2023/09/08 03:23:26;;;;;;;3.90;2.75;;;;;;;;;;5025034;28;20383;-80
2023/09/08 03:25:52;;;;;;;4.72;2.50;;;;;;;;;;5031089;28;20018;-80
2023/09/08 03:28:18;;;;;;;4.22;2.47;;;;;;;;;;5028097;28;20033;-80
2023/09/08 03:30:44;;;;;;;2.95;2.08;;;;;;;;;;5029304;28;20578;-80
2023/09/08 03:33:10;;;;;;;2.78;2.30;;;;;;;;;;5028437;28;20054;-81
2023/09/08 03:35:36;;;;;;;4.60;2.55;;;;;;;;;;5028720;28;20025;-80
2023/09/08 03:38:02;;;;;;;3.70;2.20;;;;;;;;;;5029847;28;20071;-81
2023/09/08 03:40:28;;;;;;;4.13;2.55;;;;;;;;;;5030035;28;20041;-81
2023/09/08 03:42:54;;;;;;;6.03;2.78;;;;;;;;;;5027597;28;20029;-81
2023/09/08 03:45:20;;;;;;;2.72;2.50;;;;;;;;;;5029094;28;20033;-81
2023/09/08 03:47:46;;;;;;;3.03;2.47;;;;;;;;;;5023363;28;20080;-80
2023/09/08 03:50:12;;;;;;;4.10;2.60;;;;;;;;;;5028170;28;20037;-80
2023/09/08 03:52:38;;;;;;;3.55;2.55;;;;;;;;;;5027871;28;20034;-80
2023/09/08 03:55:04;;;;;;;4.22;2.53;;;;;;;;;;5036197;28;20140;-79
2023/09/08 03:57:30;;;;;;;4.13;2.45;;;;;;;;;;5028625;28;20407;-79
2023/09/08 03:59:56;;;;;;;3.33;2.50;;;;;;;;;;5030579;28;20052;-79
2023/09/08 04:02:22;;;;;;;3.85;2.60;;;;;;;;;;5026988;28;20025;-79
2023/09/08 04:04:47;;;;;;;2.85;1.98;;;;;;;;;;5028331;28;20079;-79
2023/09/08 04:07:13;;;;;;;5.38;2.65;;;;;;;;;;5026424;28;20092;-79
2023/09/08 04:09:39;;;;;;;2.97;2.47;;;;;;;;;;5027874;28;20488;-79
2023/09/08 04:12:09;;;;;;;3.97;2.28;;;;;;;;;;5027554;28;20098;-79
2023/09/08 04:14:36;;;;;;;3.05;2.58;;;;;;;;;;5024166;28;20026;-79
2023/09/08 04:17:02;;;;;;;3.58;2.38;;;;;;;;;;5027123;28;20029;-78
2023/09/08 04:19:28;;;;;;;5.10;2.70;;;;;;;;;;5040658;28;20345;-79
2023/09/08 04:21:54;;;;;;;4.45;2.95;;;;;;;;;;5037069;28;20063;-79
2023/09/08 04:24:20;;;;;;;5.07;2.35;;;;;;;;;;5021358;28;20182;-80
2023/09/08 04:26:46;;;;;;;6.45;2.80;;;;;;;;;;5025309;28;20025;-79
2023/09/08 04:29:12;;;;;;;3.72;2.47;;;;;;;;;;5029623;28;20037;-79
2023/09/08 04:31:37;;;;;;;5.10;2.83;;;;;;;;;;5026864;28;20083;-79
2023/09/08 04:34:03;;;;;;;5.13;2.83;;;;;;;;;;5016372;28;20030;-79
2023/09/08 04:36:30;;;;;;;4.20;2.60;;;;;;;;;;5028310;28;20018;-79
2023/09/08 04:38:56;;;;;;;3.08;2.47;;;;;;;;;;5026493;28;20100;-79
2023/09/08 04:41:22;;;;;;;3.63;2.38;;;;;;;;;;5026561;28;20102;-79
2023/09/08 04:43:48;;;;;;;2.85;2.42;;;;;;;;;;5028347;28;20044;-79
2023/09/08 04:46:14;;;;;;;4.28;2.40;;;;;;;;;;5028132;28;20021;-79
2023/09/08 04:48:42;;;;;;;5.18;2.50;;;;;;;;;;5026302;28;20036;-79
2023/09/08 04:51:08;;;;;;;3.40;2.30;;;;;;;;;;5022442;28;20121;-79
2023/09/08 04:53:36;;;;;;;2.95;2.13;;;;;;;;;;5021517;28;20037;-79
2023/09/08 04:56:02;;;;;;;3.70;2.42;;;;;;;;;;5027356;28;20026;-80
2023/09/08 04:58:28;;;;;;;4.82;2.42;;;;;;;;;;5029590;28;20162;-79
2023/09/08 05:00:54;;;;;;;4.25;2.50;;;;;;;;;;5020730;28;20104;-79
2023/09/08 05:03:20;;;;;;;4.25;2.50;;;;;;;;;;5028675;28;20076;-79
2023/09/08 05:05:46;;;;;;;2.90;2.30;;;;;;;;;;5026409;28;20030;-80
2023/09/08 05:08:12;;;;;;;3.42;2.47;;;;;;;;;;5041875;28;20029;-80
2023/09/08 05:10:38;;;;;;;6.35;2.97;;;;;;;;;;5036716;28;20036;-79
2023/09/08 05:13:04;;;;;;;3.03;2.22;;;;;;;;;;5051178;28;20167;-80
2023/09/08 05:15:31;;;;;;;7.68;2.42;;;;;;;;;;5027349;28;20366;-80
2023/09/08 05:17:57;;;;;;;4.38;2.83;;;;;;;;;;5020904;28;20018;-80
2023/09/08 05:20:31;;;;;;;4.75;2.95;;;;;;;;;;5026569;28;20028;-80
2023/09/08 05:22:57;;;;;;;4.68;2.63;;;;;;;;;;5008168;28;20526;-80
2023/09/08 05:25:23;;;;;;;2.72;2.15;;;;;;;;;;5016355;28;20036;-80
2023/09/08 05:27:49;;;;;;;3.10;2.50;;;;;;;;;;5046586;28;20546;-80
2023/09/08 05:30:15;;;;;;;5.38;2.85;;;;;;;;;;5051138;28;20059;-80
2023/09/08 05:32:41;;;;;;;4.57;3.15;;;;;;;;;;5017378;28;20038;-81
2023/09/08 05:35:07;;;;;;;3.67;2.78;;;;;;;;;;5018954;28;20021;-81
2023/09/08 05:37:33;;;;;;;3.55;2.30;;;;;;;;;;5015220;28;20120;-81
2023/09/08 05:39:59;;;;;;;3.70;2.63;;;;;;;;;;5025352;28;20028;-81
2023/09/08 05:42:25;;;;;;;3.22;2.50;;;;;;;;;;5022230;28;20038;-81
2023/09/08 05:44:51;;;;;;;5.60;2.85;;;;;;;;;;5014455;28;20505;-81
2023/09/08 05:47:17;;;;;;;3.75;2.60;;;;;;;;;;5011428;28;20036;-80
2023/09/08 05:49:43;;;;;;;3.10;2.13;;;;;;;;;;5017647;28;20041;-81
2023/09/08 05:52:09;;;;;;;5.45;3.22;;;;;;;;;;5024370;28;20025;-81
2023/09/08 05:54:35;;;;;;;5.65;2.83;;;;;;;;;;5026034;28;20041;-81
2023/09/08 05:57:01;;;;;;;3.80;2.75;;;;;;;;;;5022116;28;20022;-81
2023/09/08 05:59:28;;;;;;;4.82;3.30;;;;;;;;;;5022479;28;20051;-76
2023/09/08 06:01:54;;;;;;;3.45;2.63;;;;;;;;;;5029661;28;20112;-75
2023/09/08 06:04:20;;;;;;;4.47;2.97;;;;;;;;;;5027932;28;20966;-84
2023/09/08 06:06:46;;;;;;;3.67;2.63;;;;;;;;;;5029115;28;20025;-89
2023/09/08 06:09:14;;;;;;;5.25;2.97;;;;;;;;;;5037429;28;20754;-93
2023/09/08 06:11:40;;;;;;;3.47;2.47;;;;;;;;;;5039499;28;20021;-88
2023/09/08 06:14:06;;;;;;;5.03;2.92;;;;;;;;;;5020025;28;20117;-93
2023/09/08 06:16:32;;;;;;;5.20;3.33;;;;;;;;;;5024359;28;20419;-89
2023/09/08 06:18:58;;;;;;;6.18;3.38;;;;;;;;;;5031584;28;20032;-92
2023/09/08 06:21:24;;;;;;;4.00;2.90;;;;;;;;;;5015666;28;20068;-88
2023/09/08 06:23:50;;;;;;;7.05;3.22;;;;;;;;;;5016247;28;20440;-89
2023/09/08 06:26:16;;;;;;;5.93;3.28;;;;;;;;;;5022416;28;20388;-88
2023/09/08 06:28:43;;;;;;;5.07;2.97;;;;;;;;;;5021126;28;20135;-88
2023/09/08 06:31:09;;;;;;;4.90;3.17;;;;;;;;;;5035116;28;20511;-88
2023/09/08 06:33:35;;;;;;;4.57;3.17;;;;;;;;;;5030346;28;20063;-89
2023/09/08 06:36:01;;;;;;;4.88;3.08;;;;;;;;;;5035379;28;20380;-90
2023/09/08 06:38:27;;;;;;;6.22;3.30;;;;;;;;;;5006385;28;20067;-90
2023/09/08 06:40:53;;;;;;;4.32;3.13;;;;;;;;;;5022198;28;20105;-92
2023/09/08 06:43:19;;;;;;;5.38;2.92;;;;;;;;;;5030019;28;20030;-89
2023/09/08 06:45:49;;;;;;;5.00;3.03;;;;;;;;;;5033808;28;20071;-79
2023/09/08 06:48:15;;;;;;;4.85;3.08;;;;;;;;;;5025316;28;20132;-88
2023/09/08 06:50:41;;;;;;;10.02;4.10;;;;;;;;;;5024878;28;20021;-82
2023/09/08 06:53:07;;;;;;;6.85;3.45;;;;;;;;;;5022434;28;20018;-88
2023/09/08 06:55:33;;;;;;;4.72;2.85;;;;;;;;;;5033344;28;20044;-91
2023/09/08 06:57:59;;;;;;;4.30;2.67;;;;;;;;;;5040514;28;20056;-82
2023/09/08 07:00:25;;;;;;;4.22;2.65;;;;;;;;;;5035670;28;20099;-85
2023/09/08 07:02:51;;;;;;;5.60;3.05;;;;;;;;;;5038113;28;20123;-84
2023/09/08 07:05:17;;;;;;;3.55;2.47;;;;;;;;;;5027153;28;20033;-84
2023/09/08 07:07:43;;;;;;;3.30;2.90;;;;;;;;;;5033049;28;20029;-83
2023/09/08 07:10:10;;;;;;;4.22;2.63;;;;;;;;;;5028558;28;20025;-83
2023/09/08 07:12:35;;;;;;;5.47;2.85;;;;;;;;;;5029419;28;20116;-84
2023/09/08 07:15:02;;;;;;;5.22;3.05;;;;;;;;;;5027948;28;20026;-86
2023/09/08 07:17:28;;;;;;;5.03;3.17;;;;;;;;;;5026897;28;20026;-86
2023/09/08 07:19:54;;;;;;;5.75;3.38;;;;;;;;;;5039884;28;20076;-84
2023/09/08 07:22:20;;;;;;;3.05;2.47;;;;;;;;;;5029357;28;20025;-85
2023/09/08 07:24:46;;;;;;;4.40;3.10;;;;;;;;;;5027984;28;20026;-85
2023/09/08 07:27:14;;;;;;;3.78;2.67;;;;;;;;;;5027961;28;20029;-82
2023/09/08 07:29:40;;;;;;;6.28;3.25;;;;;;;;;;5025412;28;20614;-80
2023/09/08 07:32:06;;;;;;;4.05;2.55;;;;;;;;;;5028467;28;20038;-80
2023/09/08 07:34:32;;;;;;;9.13;2.92;;;;;;;;;;5035680;28;20067;-79
2023/09/08 07:36:58;;;;;;;4.22;2.85;;;;;;;;;;5031182;28;20046;-78
2023/09/08 07:39:24;;;;;;;5.15;3.33;;;;;;;;;;5024834;28;20450;-79
2023/09/08 07:41:52;;;;;;;4.38;2.80;;;;;;;;;;5041879;28;20047;-80
2023/09/08 07:44:18;;;;;;;3.85;2.35;;;;;;;;;;5045973;28;20025;-76
2023/09/08 07:46:45;;;;;;;4.88;3.08;;;;;;;;;;5035071;28;20039;-82
2023/09/08 07:49:11;;;;;;;3.92;3.15;;;;;;;;;;5034128;28;20506;-87
2023/09/08 07:51:37;;;;;;;4.68;3.65;;;;;;;;;;5025896;28;20029;-83
2023/09/08 07:54:04;;;;;;;3.78;2.80;;;;;;;;;;5026017;28;20741;-84
2023/09/08 07:56:30;;;;;;;4.80;2.70;;;;;;;;;;5025112;28;20021;-83
2023/09/08 07:58:56;;;;;;;5.47;3.22;;;;;;;;;;5027393;28;20099;-74
2023/09/08 08:01:22;;;;;;;3.70;2.95;;;;;;;;;;5036543;28;20036;-82
2023/09/08 08:03:48;;;;;;;4.88;2.78;;;;;;;;;;5036694;28;20148;-82
2023/09/08 08:06:14;;;;;;;4.63;2.97;;;;;;;;;;5044784;28;20488;-82
2023/09/08 08:08:40;;;;;;;5.57;3.33;;;;;;;;;;5042979;28;20033;-82
2023/09/08 08:11:17;;;;;;;5.47;2.88;;;;;;;;;;5044006;28;20029;-82
2023/09/08 08:13:43;;;;;;;3.67;2.25;;;;;;;;;;5046111;28;20037;-82
2023/09/08 08:16:09;;;;;;;4.53;2.50;;;;;;;;;;5048939;28;20029;-81
2023/09/08 08:18:35;;;;;;;5.72;3.10;;;;;;;;;;5048471;28;20035;-82
2023/09/08 08:21:03;;;;;;;4.93;3.05;;;;;;;;;;5048252;28;20360;-82
2023/09/08 08:23:29;;;;;;;5.82;3.15;;;;;;;;;;5036130;28;20029;-81
2023/09/08 08:25:55;;;;;;;4.13;2.97;;;;;;;;;;5034920;28;20044;-81
2023/09/08 08:28:21;;;;;;;6.18;2.95;;;;;;;;;;5047636;28;20399;-82
2023/09/08 08:30:47;;;;;;;4.70;3.03;;;;;;;;;;5045748;28;20056;-81
2023/09/08 08:33:13;;;;;;;4.22;2.75;;;;;;;;;;5040811;28;20025;-85
2023/09/08 08:35:39;;;;;;;3.75;2.60;;;;;;;;;;5044422;28;20025;-80
2023/09/08 08:38:05;;;;;;;3.65;2.55;;;;;;;;;;5040853;28;20124;-76
2023/09/08 08:40:31;;;;;;;6.60;3.47;;;;;;;;;;5046424;28;20021;-76
2023/09/08 08:42:58;;;;;;;4.85;3.10;;;;;;;;;;5044206;28;20681;-76
2023/09/08 08:45:25;;;;;;;4.70;2.95;;;;;;;;;;5035262;28;20045;-79
2023/09/08 08:47:51;;;;;;;7.22;3.67;;;;;;;;;;5047919;28;20029;-79
2023/09/08 08:50:18;;;;;;;5.40;3.22;;;;;;;;;;5043697;28;20033;-80
2023/09/08 08:52:44;;;;;;;3.90;2.50;;;;;;;;;;5027169;28;20416;-79
2023/09/08 08:55:10;;;;;;;5.95;2.85;;;;;;;;;;5039223;28;20519;-79
2023/09/08 08:57:39;;;;;;;3.30;2.45;;;;;;;;;;5032911;28;20382;-81
2023/09/08 09:00:10;;;;;;;4.05;2.80;;;;;;;;;;5037174;28;20131;-83
2023/09/08 09:02:37;;;;;;;5.13;2.83;;;;;;;;;;5054404;28;20607;-81
2023/09/08 09:05:04;;;;;;;3.97;2.80;;;;;;;;;;5051629;28;20021;-86
2023/09/08 09:07:30;;;;;;;5.63;3.08;;;;;;;;;;5047782;28;20032;-83
2023/09/08 09:09:56;;;;;;;5.05;3.25;;;;;;;;;;5036402;28;20044;-82
2023/09/08 09:12:22;;;;;;;5.32;3.03;;;;;;;;;;5034976;28;20013;-83
2023/09/08 09:14:48;;;;;;;7.72;3.30;;;;;;;;;;5046895;28;20033;-82
2023/09/08 09:17:14;;;;;;;3.85;2.95;;;;;;;;;;5051359;28;20557;-80
2023/09/08 09:19:41;;;;;;;3.47;2.67;;;;;;;;;;5049236;28;20025;-81
2023/09/08 09:22:07;;;;;;;4.93;2.47;;;;;;;;;;5060558;28;20025;-82
2023/09/08 09:24:33;;;;;;;4.35;2.58;;;;;;;;;;5043910;28;20025;-81
2023/09/08 09:27:00;;;;;;;5.00;3.20;;;;;;;;;;5037379;28;20567;-80
2023/09/08 09:29:27;;;;;;;8.80;3.05;;;;;;;;;;5038117;28;20102;-79
2023/09/08 09:31:56;;;;;;;3.47;2.58;;;;;;;;;;5041733;28;20544;-79
2023/09/08 09:34:23;;;;;;;5.32;2.90;;;;;;;;;;5046161;28;20044;-81
2023/09/08 09:36:50;;;;;;;4.15;2.65;;;;;;;;;;5043395;28;20028;-80
2023/09/08 09:39:23;;;;;;;4.72;3.00;;;;;;;;;;5049309;28;20025;-80
2023/09/08 09:41:49;;;;;;;6.32;2.72;;;;;;;;;;5033023;28;20017;-81
2023/09/08 09:44:16;;;;;;;4.35;2.95;;;;;;;;;;5043029;28;20036;-81
2023/09/08 09:46:46;;;;;;;3.60;2.55;;;;;;;;;;5050017;28;20025;-81
2023/09/08 09:49:13;;;;;;;3.63;2.28;;;;;;;;;;5050467;28;20039;-81
2023/09/08 09:51:50;;;;;;;5.05;3.08;;;;;;;;;;5046510;28;20025;-81
2023/09/08 09:54:16;;;;;;;4.47;2.78;;;;;;;;;;5045020;28;20028;-81
2023/09/08 09:56:43;;;;;;;5.35;2.75;;;;;;;;;;5042565;28;20204;-81
2023/09/08 09:59:10;;;;;;;4.68;2.78;;;;;;;;;;5038622;28;20046;-81
2023/09/08 10:01:36;;;;;;;5.20;3.20;;;;;;;;;;5037764;28;20029;-82
2023/09/08 10:04:03;;;;;;;5.78;3.50;;;;;;;;;;5038224;28;20029;-80
2023/09/08 10:06:32;;;;;;;6.78;2.83;;;;;;;;;;5039478;28;20025;-81
2023/09/08 10:08:59;;;;;;;5.20;2.95;;;;;;;;;;5041289;28;20086;-81
2023/09/08 10:11:26;;;;;;;5.10;3.08;;;;;;;;;;5050404;28;20120;-81
2023/09/08 10:13:55;;;;;;;3.42;2.30;;;;;;;;;;5040660;28;20040;-81
2023/09/08 10:16:22;;;;;;;5.30;3.25;;;;;;;;;;5044262;28;20033;-81
2023/09/08 10:18:49;;;;;;;5.07;3.08;;;;;;;;;;5044549;28;20032;-81
2023/09/08 10:21:17;;;;;;;3.83;2.72;;;;;;;;;;5046475;28;20033;-80
2023/09/08 10:23:46;;;;;;;5.50;2.90;;;;;;;;;;5043760;28;20029;-79
2023/09/08 10:26:12;;;;;;;4.57;2.65;;;;;;;;;;5040910;28;20112;-80
2023/09/08 10:28:38;;;;;;;4.47;2.45;;;;;;;;;;5042092;28;20108;-80
2023/09/08 10:31:05;;;;;;;2.35;1.92;;;;;;;;;;5045515;28;20083;-81
2023/09/08 10:33:31;;;;;;;6.30;2.33;;;;;;;;;;5053794;28;20073;-79
2023/09/08 10:35:58;;;;;;;3.20;2.28;;;;;;;;;;5045219;28;20029;-78
2023/09/08 10:38:24;;;;;;;4.85;2.90;;;;;;;;;;5050189;28;20024;-79
2023/09/08 10:40:50;;;;;;;4.00;2.70;;;;;;;;;;5044962;28;20056;-79
2023/09/08 10:43:17;;;;;;;4.75;2.85;;;;;;;;;;5035651;28;20370;-80
2023/09/08 10:45:44;;;;;;;2.72;2.40;;;;;;;;;;5028420;28;20128;-74
2023/09/08 10:48:10;;;;;;;6.15;3.53;;;;;;;;;;5039912;28;20037;-80
2023/09/08 10:50:40;;;;;;;3.65;2.65;;;;;;;;;;5040841;28;20156;-80
2023/09/08 10:53:13;;;;;;;4.45;2.45;;;;;;;;;;5048016;28;20391;-80
2023/09/08 10:55:50;;;;;;;4.10;2.55;;;;;;;;;;5035010;28;20475;-80
2023/09/08 10:58:37;;;;;;;3.92;2.45;;;;;;;;;;5032998;28;20055;-80
2023/09/08 11:01:04;;;;;;;3.55;2.55;;;;;;;;;;5035862;28;20385;-80
2023/09/08 11:03:39;;;;;;;3.10;2.20;;;;;;;;;;5034261;28;20370;-80
2023/09/08 11:06:09;;;;;;;2.80;2.05;;;;;;;;;;5040810;28;20068;-80
2023/09/08 11:08:39;;;;;;;4.55;2.30;;;;;;;;;;5034430;28;20051;-80
2023/09/08 11:11:05;;;;;;;4.35;2.63;;;;;;;;;;5040535;28;20028;-81
2023/09/08 11:13:31;;;;;;;3.47;2.55;;;;;;;;;;5033704;28;20033;-80
2023/09/08 11:15:57;;;;;;;7.13;2.50;;;;;;;;;;5033329;28;20405;-80
2023/09/08 11:18:26;;;;;;;6.80;2.70;;;;;;;;;;5023433;28;20037;-80
2023/09/08 11:20:53;;;;;;;4.22;3.13;;;;;;;;;;5030743;28;20031;-80
2023/09/08 11:23:19;;;;;;;5.13;2.85;;;;;;;;;;5029691;28;20040;-81
2023/09/08 11:25:45;;;;;;;4.38;2.83;;;;;;;;;;5039427;28;20024;-80
2023/09/08 11:28:13;;;;;;;3.78;2.60;;;;;;;;;;5030449;28;20435;-80
2023/09/08 11:30:39;;;;;;;2.80;2.50;;;;;;;;;;5023752;28;20498;-80
2023/09/08 11:33:14;;;;;;;5.68;3.00;;;;;;;;;;5033591;28;20029;-80
2023/09/08 11:35:43;;;;;;;4.18;2.55;;;;;;;;;;5022322;28;20041;-80
2023/09/08 11:38:10;;;;;;;3.30;2.50;;;;;;;;;;5032975;28;20598;-81
2023/09/08 11:40:36;;;;;;;3.25;2.47;;;;;;;;;;5027794;28;20448;-78
2023/09/08 11:43:03;;;;;;;3.13;2.15;;;;;;;;;;5027396;28;20035;-78
2023/09/08 11:45:30;;;;;;;9.32;2.63;;;;;;;;;;5025450;28;20597;-72
2023/09/08 11:47:56;;;;;;;3.45;2.47;;;;;;;;;;5032222;28;20116;-77
2023/09/08 11:50:23;;;;;;;8.82;2.60;;;;;;;;;;5033713;28;20631;-77
2023/09/08 11:52:50;;;;;;;3.58;2.47;;;;;;;;;;5038521;28;20053;-77
2023/09/08 11:55:16;;;;;;;3.25;2.53;;;;;;;;;;5039057;28;20028;-77
2023/09/08 11:57:44;;;;;;;4.55;2.72;;;;;;;;;;5035862;28;20028;-78
2023/09/08 12:00:14;;;;;;;3.58;2.33;;;;;;;;;;5025106;28;20048;-77
2023/09/08 12:02:43;;;;;;;3.60;2.40;;;;;;;;;;5045346;28;20025;-78
2023/09/08 12:05:13;;;;;;;3.00;2.00;;;;;;;;;;5035843;28;20042;-77
2023/09/08 12:07:39;;;;;;;6.60;2.90;;;;;;;;;;5035694;28;20545;-78
2023/09/08 12:10:12;;;;;;;3.22;2.03;;;;;;;;;;5042369;28;20025;-76
2023/09/08 12:12:44;;;;;;;4.90;2.42;;;;;;;;;;5035959;28;20030;-78
2023/09/08 12:15:11;;;;;;;3.78;2.30;;;;;;;;;;5040913;28;20076;-77
2023/09/08 12:17:50;;;;;;;4.93;2.50;;;;;;;;;;5031000;28;20029;-78
2023/09/08 12:20:16;;;;;;;3.47;2.40;;;;;;;;;;5039213;28;20060;-77
2023/09/08 12:22:51;;;;;;;3.70;2.53;;;;;;;;;;5046882;28;20082;-77
2023/09/08 12:25:18;;;;;;;3.60;2.53;;;;;;;;;;5045485;28;20104;-77
2023/09/08 12:27:45;;;;;;;3.13;2.40;;;;;;;;;;5036165;28;20444;-77
2023/09/08 12:30:16;;;;;;;2.92;2.30;;;;;;;;;;5046377;28;20068;-77
2023/09/08 12:32:42;;;;;;;3.97;2.50;;;;;;;;;;5039599;28;20025;-77
2023/09/08 12:35:09;;;;;;;3.63;2.22;;;;;;;;;;5046399;28;20025;-77
2023/09/08 12:37:36;;;;;;;2.72;2.22;;;;;;;;;;5029742;28;20080;-77
2023/09/08 12:40:02;;;;;;;5.85;2.28;;;;;;;;;;5031812;28;20079;-77
2023/09/08 12:42:29;;;;;;;4.45;2.75;;;;;;;;;;5028294;28;20032;-76
2023/09/08 12:44:55;;;;;;;4.03;2.47;;;;;;;;;;5043191;28;20021;-76
2023/09/08 12:47:21;;;;;;;2.10;1.88;;;;;;;;;;5034925;28;20108;-76
2023/09/08 12:49:47;;;;;;;2.75;2.28;;;;;;;;;;5044440;28;20128;-77
2023/09/08 12:52:13;;;;;;;3.00;2.30;;;;;;;;;;5041954;28;20635;-80
2023/09/08 12:54:39;;;;;;;3.53;2.50;;;;;;;;;;5042822;28;20025;-80
2023/09/08 12:57:05;;;;;;;4.03;2.28;;;;;;;;;;5032516;28;20494;-77
2023/09/08 12:59:31;;;;;;;4.40;2.75;;;;;;;;;;5019983;28;20551;-76
2023/09/08 13:01:57;;;;;;;4.53;2.63;;;;;;;;;;5021890;28;20014;-76
2023/09/08 13:04:23;;;;;;;9.10;2.75;;;;;;;;;;5038768;28;20025;-77
2023/09/08 13:06:49;;;;;;;11.82;3.42;;;;;;;;;;5033164;28;20036;-76
2023/09/08 13:09:16;;;;;;;14.43;5.20;;;;;;;;;;5047708;28;20116;-79
2023/09/08 13:11:42;;;;;;;15.77;7.15;;;;;;;;;;5040733;28;20143;-75
2023/09/08 13:14:08;;;;;;;22.88;10.98;;;;;;;;;;5036410;28;20515;-76
2023/09/08 13:16:34;;;;;;;38.05;15.65;;;;;;;;;;5024518;28;20033;-76
2023/09/08 13:19:00;;;;;;;43.90;16.75;;;;;;;;;;5030710;28;20079;-76
2023/09/08 13:21:26;;;;;;;60.70;22.25;;;;;;;;;;5048325;28;20025;-77
2023/09/08 13:23:52;;;;;;;71.07;29.05;;;;;;;;;;5047194;28;20028;-75
2023/09/08 13:26:18;;;;;;;85.70;34.15;;;;;;;;;;5034996;28;20037;-78
2023/09/08 13:28:44;;;;;;;87.25;33.00;;;;;;;;;;5032928;28;20059;-79
2023/09/08 13:31:10;;;;;;;78.93;28.70;;;;;;;;;;5039888;28;20035;-78
2023/09/08 13:33:36;;;;;;;61.60;23.95;;;;;;;;;;5052634;28;20411;-78
2023/09/08 13:36:02;;;;;;;57.58;21.77;;;;;;;;;;5043105;28;20035;-77
2023/09/08 13:38:28;;;;;;;50.92;20.52;;;;;;;;;;5017820;28;20030;-77
2023/09/08 13:40:54;;;;;;;36.83;16.02;;;;;;;;;;5020855;28;20018;-78
2023/09/08 13:43:20;;;;;;;29.00;13.73;;;;;;;;;;5024078;28;20095;-79
2023/09/08 13:45:46;;;;;;;31.55;13.20;;;;;;;;;;5049867;28;20039;-78
2023/09/08 13:48:12;;;;;;;19.33;10.00;;;;;;;;;;5047973;28;20108;-77
2023/09/08 13:50:40;;;;;;;17.13;8.77;;;;;;;;;;5043383;28;20041;-78
2023/09/08 13:53:06;;;;;;;21.77;8.60;;;;;;;;;;5046485;28;20509;-77
2023/09/08 13:55:32;;;;;;;16.15;7.88;;;;;;;;;;5033810;28;20483;-79
2023/09/08 13:57:58;;;;;;;13.20;7.15;;;;;;;;;;5036093;28;20026;-78
2023/09/08 14:00:24;;;;;;;13.05;5.97;;;;;;;;;;5026889;28;20520;-78
2023/09/08 14:02:50;;;;;;;11.85;6.15;;;;;;;;;;5024258;28;20030;-78
2023/09/08 14:05:16;;;;;;;11.00;5.55;;;;;;;;;;5031059;28;20070;-78
2023/09/08 14:07:42;;;;;;;9.00;5.25;;;;;;;;;;5031309;28;20033;-78
2023/09/08 14:10:09;;;;;;;10.27;5.07;;;;;;;;;;5039462;28;20025;-76
2023/09/08 14:12:35;;;;;;;5.80;4.15;;;;;;;;;;5024637;28;20035;-76
2023/09/08 14:15:01;;;;;;;10.77;4.15;;;;;;;;;;5016152;28;23052;-78
2023/09/08 14:17:27;;;;;;;6.28;3.70;;;;;;;;;;5017165;28;20217;-76
2023/09/08 14:19:53;;;;;;;5.78;3.53;;;;;;;;;;5008978;28;20524;-78
2023/09/08 14:22:19;;;;;;;6.93;3.22;;;;;;;;;;5030808;28;20026;-78
2023/09/08 14:24:45;;;;;;;9.23;3.33;;;;;;;;;;5035652;28;20032;-78
2023/09/08 14:27:11;;;;;;;3.47;2.45;;;;;;;;;;5028250;28;20404;-76
2023/09/08 14:29:37;;;;;;;5.20;3.10;;;;;;;;;;5026237;28;20349;-76
2023/09/08 14:32:03;;;;;;;12.05;2.70;;;;;;;;;;5031086;28;20025;-76
2023/09/08 14:34:29;;;;;;;3.67;2.70;;;;;;;;;;5025299;28;20133;-77
2023/09/08 14:36:54;;;;;;;4.57;2.47;;;;;;;;;;5020673;28;20388;-76